sensor_id;sensor_type;location;lat;lon;timestamp;P1;durP1;ratioP1;P2;durP2;ratioP2
56541;SDS011;42438;53.174;6.730;2024-03-07T00:01:03;20.92;;;11.48;;
56541;SDS011;42438;53.174;6.730;2024-03-07T00:03:34;22.85;;;12.40;;
56541;SDS011;42438;53.174;6.730;2024-03-07T00:06:04;26.27;;;13.63;;
56541;SDS011;42438;53.174;6.730;2024-03-07T00:08:35;21.77;;;11.90;;
56541;SDS011;42438;53.174;6.730;2024-03-07T00:11:06;20.33;;;11.98;;
56541;SDS011;42438;53.174;6.730;2024-03-07T00:13:37;23.45;;;12.25;;
56541;SDS011;42438;53.174;6.730;2024-03-07T00:16:07;22.63;;;11.48;;
56541;SDS011;42438;53.174;6.730;2024-03-07T00:18:40;22.23;;;11.70;;
56541;SDS011;42438;53.174;6.730;2024-03-07T00:21:11;20.38;;;12.13;;
56541;SDS011;42438;53.174;6.730;2024-03-07T00:23:42;21.40;;;11.65;;
56541;SDS011;42438;53.174;6.730;2024-03-07T00:26:13;25.80;;;12.77;;
56541;SDS011;42438;53.174;6.730;2024-03-07T00:28:44;21.90;;;11.77;;
56541;SDS011;42438;53.174;6.730;2024-03-07T00:31:15;20.45;;;11.23;;
56541;SDS011;42438;53.174;6.730;2024-03-07T00:33:45;22.42;;;11.98;;
56541;SDS011;42438;53.174;6.730;2024-03-07T00:36:16;23.33;;;12.05;;
56541;SDS011;42438;53.174;6.730;2024-03-07T00:38:48;25.23;;;12.43;;
56541;SDS011;42438;53.174;6.730;2024-03-07T00:41:19;22.90;;;11.68;;
56541;SDS011;42438;53.174;6.730;2024-03-07T00:43:50;25.45;;;12.50;;
56541;SDS011;42438;53.174;6.730;2024-03-07T00:46:21;23.25;;;12.48;;
56541;SDS011;42438;53.174;6.730;2024-03-07T00:48:51;23.10;;;12.77;;
56541;SDS011;42438;53.174;6.730;2024-03-07T00:51:22;20.48;;;11.95;;
56541;SDS011;42438;53.174;6.730;2024-03-07T00:53:53;20.45;;;11.88;;
56541;SDS011;42438;53.174;6.730;2024-03-07T00:56:23;24.15;;;12.18;;
56541;SDS011;42438;53.174;6.730;2024-03-07T00:58:54;21.67;;;11.82;;
56541;SDS011;42438;53.174;6.730;2024-03-07T01:01:26;25.93;;;13.10;;
56541;SDS011;42438;53.174;6.730;2024-03-07T01:03:57;21.30;;;11.35;;
56541;SDS011;42438;53.174;6.730;2024-03-07T01:06:28;23.23;;;11.77;;
56541;SDS011;42438;53.174;6.730;2024-03-07T01:08:58;23.42;;;12.25;;
56541;SDS011;42438;53.174;6.730;2024-03-07T01:11:29;21.85;;;11.73;;
56541;SDS011;42438;53.174;6.730;2024-03-07T01:14:00;23.67;;;12.25;;
56541;SDS011;42438;53.174;6.730;2024-03-07T01:16:30;22.42;;;12.02;;
56541;SDS011;42438;53.174;6.730;2024-03-07T01:19:01;21.73;;;11.52;;
56541;SDS011;42438;53.174;6.730;2024-03-07T01:21:35;22.60;;;11.63;;
56541;SDS011;42438;53.174;6.730;2024-03-07T01:24:06;21.75;;;11.48;;
56541;SDS011;42438;53.174;6.730;2024-03-07T01:26:37;21.73;;;11.90;;
56541;SDS011;42438;53.174;6.730;2024-03-07T01:29:07;22.20;;;11.75;;
56541;SDS011;42438;53.174;6.730;2024-03-07T01:31:38;21.23;;;11.00;;
56541;SDS011;42438;53.174;6.730;2024-03-07T01:34:09;19.30;;;10.15;;
56541;SDS011;42438;53.174;6.730;2024-03-07T01:36:39;21.35;;;10.85;;
56541;SDS011;42438;53.174;6.730;2024-03-07T01:39:10;21.23;;;11.27;;
56541;SDS011;42438;53.174;6.730;2024-03-07T01:41:41;21.10;;;11.63;;
56541;SDS011;42438;53.174;6.730;2024-03-07T01:44:11;22.60;;;12.68;;
56541;SDS011;42438;53.174;6.730;2024-03-07T01:46:42;21.17;;;10.75;;
56541;SDS011;42438;53.174;6.730;2024-03-07T01:49:13;20.15;;;11.82;;
56541;SDS011;42438;53.174;6.730;2024-03-07T01:51:43;21.55;;;12.15;;
56541;SDS011;42438;53.174;6.730;2024-03-07T01:54:14;20.73;;;11.52;;
56541;SDS011;42438;53.174;6.730;2024-03-07T01:56:45;21.17;;;10.98;;
56541;SDS011;42438;53.174;6.730;2024-03-07T01:59:16;22.40;;;12.15;;
56541;SDS011;42438;53.174;6.730;2024-03-07T02:01:50;20.75;;;11.27;;
56541;SDS011;42438;53.174;6.730;2024-03-07T02:04:22;21.20;;;11.40;;
56541;SDS011;42438;53.174;6.730;2024-03-07T02:06:53;19.67;;;10.65;;
56541;SDS011;42438;53.174;6.730;2024-03-07T02:09:25;23.30;;;12.35;;
56541;SDS011;42438;53.174;6.730;2024-03-07T02:11:55;20.55;;;10.98;;
56541;SDS011;42438;53.174;6.730;2024-03-07T02:14:26;19.45;;;11.23;;
56541;SDS011;42438;53.174;6.730;2024-03-07T02:16:57;20.42;;;10.77;;
56541;SDS011;42438;53.174;6.730;2024-03-07T02:19:28;21.50;;;11.10;;
56541;SDS011;42438;53.174;6.730;2024-03-07T02:21:58;21.02;;;11.45;;
56541;SDS011;42438;53.174;6.730;2024-03-07T02:24:29;24.65;;;11.65;;
56541;SDS011;42438;53.174;6.730;2024-03-07T02:27:02;20.70;;;10.40;;
56541;SDS011;42438;53.174;6.730;2024-03-07T02:29:33;21.35;;;11.07;;
56541;SDS011;42438;53.174;6.730;2024-03-07T02:32:04;19.20;;;11.10;;
56541;SDS011;42438;53.174;6.730;2024-03-07T02:34:34;23.83;;;12.15;;
56541;SDS011;42438;53.174;6.730;2024-03-07T02:37:05;21.30;;;11.13;;
56541;SDS011;42438;53.174;6.730;2024-03-07T02:39:36;25.40;;;12.45;;
56541;SDS011;42438;53.174;6.730;2024-03-07T02:42:07;22.15;;;11.75;;
56541;SDS011;42438;53.174;6.730;2024-03-07T02:44:37;20.38;;;11.52;;
56541;SDS011;42438;53.174;6.730;2024-03-07T02:47:08;25.30;;;12.10;;
56541;SDS011;42438;53.174;6.730;2024-03-07T02:49:39;22.67;;;11.90;;
56541;SDS011;42438;53.174;6.730;2024-03-07T02:52:09;23.52;;;12.43;;
56541;SDS011;42438;53.174;6.730;2024-03-07T02:54:40;22.55;;;12.57;;
56541;SDS011;42438;53.174;6.730;2024-03-07T02:57:11;21.40;;;11.52;;
56541;SDS011;42438;53.174;6.730;2024-03-07T02:59:41;21.48;;;11.75;;
56541;SDS011;42438;53.174;6.730;2024-03-07T03:02:12;20.67;;;10.82;;
56541;SDS011;42438;53.174;6.730;2024-03-07T03:04:43;20.95;;;10.63;;
56541;SDS011;42438;53.174;6.730;2024-03-07T03:07:13;20.45;;;11.48;;
56541;SDS011;42438;53.174;6.730;2024-03-07T03:09:44;21.48;;;11.90;;
56541;SDS011;42438;53.174;6.730;2024-03-07T03:12:14;22.10;;;11.85;;
56541;SDS011;42438;53.174;6.730;2024-03-07T03:14:47;19.88;;;11.48;;
56541;SDS011;42438;53.174;6.730;2024-03-07T03:17:17;23.20;;;12.10;;
56541;SDS011;42438;53.174;6.730;2024-03-07T03:19:48;21.38;;;11.23;;
56541;SDS011;42438;53.174;6.730;2024-03-07T03:22:20;23.20;;;12.20;;
56541;SDS011;42438;53.174;6.730;2024-03-07T03:24:51;21.15;;;11.38;;
56541;SDS011;42438;53.174;6.730;2024-03-07T03:27:25;20.55;;;12.18;;
56541;SDS011;42438;53.174;6.730;2024-03-07T03:29:56;20.92;;;12.30;;
56541;SDS011;42438;53.174;6.730;2024-03-07T03:32:26;23.15;;;11.88;;
56541;SDS011;42438;53.174;6.730;2024-03-07T03:34:57;19.35;;;11.02;;
56541;SDS011;42438;53.174;6.730;2024-03-07T03:37:28;19.35;;;10.88;;
56541;SDS011;42438;53.174;6.730;2024-03-07T03:39:59;22.55;;;11.70;;
56541;SDS011;42438;53.174;6.730;2024-03-07T03:42:29;20.23;;;11.63;;
56541;SDS011;42438;53.174;6.730;2024-03-07T03:45:00;21.60;;;12.45;;
56541;SDS011;42438;53.174;6.730;2024-03-07T03:47:30;21.55;;;11.48;;
56541;SDS011;42438;53.174;6.730;2024-03-07T03:50:04;23.10;;;12.02;;
56541;SDS011;42438;53.174;6.730;2024-03-07T03:52:35;20.08;;;11.93;;
56541;SDS011;42438;53.174;6.730;2024-03-07T03:55:06;21.30;;;12.32;;
56541;SDS011;42438;53.174;6.730;2024-03-07T03:57:42;20.95;;;11.50;;
56541;SDS011;42438;53.174;6.730;2024-03-07T04:00:13;22.00;;;12.45;;
56541;SDS011;42438;53.174;6.730;2024-03-07T04:02:45;22.77;;;12.52;;
56541;SDS011;42438;53.174;6.730;2024-03-07T04:05:19;21.25;;;11.85;;
56541;SDS011;42438;53.174;6.730;2024-03-07T04:07:51;25.27;;;12.52;;
56541;SDS011;42438;53.174;6.730;2024-03-07T04:10:22;18.67;;;11.18;;
56541;SDS011;42438;53.174;6.730;2024-03-07T04:12:52;22.27;;;11.38;;
56541;SDS011;42438;53.174;6.730;2024-03-07T04:15:23;24.58;;;12.57;;
56541;SDS011;42438;53.174;6.730;2024-03-07T04:17:56;21.40;;;11.52;;
56541;SDS011;42438;53.174;6.730;2024-03-07T04:20:27;23.23;;;12.80;;
56541;SDS011;42438;53.174;6.730;2024-03-07T04:22:58;22.70;;;12.75;;
56541;SDS011;42438;53.174;6.730;2024-03-07T04:25:29;22.08;;;12.73;;
56541;SDS011;42438;53.174;6.730;2024-03-07T04:27:59;25.33;;;13.55;;
56541;SDS011;42438;53.174;6.730;2024-03-07T04:30:30;23.90;;;12.43;;
56541;SDS011;42438;53.174;6.730;2024-03-07T04:33:01;22.95;;;12.57;;
56541;SDS011;42438;53.174;6.730;2024-03-07T04:35:31;25.05;;;12.40;;
56541;SDS011;42438;53.174;6.730;2024-03-07T04:38:02;22.15;;;12.65;;
56541;SDS011;42438;53.174;6.730;2024-03-07T04:40:33;23.55;;;12.80;;
56541;SDS011;42438;53.174;6.730;2024-03-07T04:43:04;23.55;;;12.85;;
56541;SDS011;42438;53.174;6.730;2024-03-07T04:45:35;24.30;;;12.63;;
56541;SDS011;42438;53.174;6.730;2024-03-07T04:48:08;27.40;;;13.90;;
56541;SDS011;42438;53.174;6.730;2024-03-07T04:50:39;24.35;;;12.40;;
56541;SDS011;42438;53.174;6.730;2024-03-07T04:53:09;23.98;;;13.98;;
56541;SDS011;42438;53.174;6.730;2024-03-07T04:55:40;26.25;;;14.63;;
56541;SDS011;42438;53.174;6.730;2024-03-07T04:58:10;24.98;;;13.68;;
56541;SDS011;42438;53.174;6.730;2024-03-07T05:00:41;24.80;;;13.80;;
56541;SDS011;42438;53.174;6.730;2024-03-07T05:03:12;28.38;;;14.52;;
56541;SDS011;42438;53.174;6.730;2024-03-07T05:05:42;30.80;;;14.63;;
56541;SDS011;42438;53.174;6.730;2024-03-07T05:08:13;28.13;;;15.52;;
56541;SDS011;42438;53.174;6.730;2024-03-07T05:10:44;28.05;;;14.60;;
56541;SDS011;42438;53.174;6.730;2024-03-07T05:13:14;27.55;;;15.38;;
56541;SDS011;42438;53.174;6.730;2024-03-07T05:15:45;32.05;;;15.82;;
56541;SDS011;42438;53.174;6.730;2024-03-07T05:18:16;32.45;;;15.63;;
56541;SDS011;42438;53.174;6.730;2024-03-07T05:20:46;31.77;;;15.70;;
56541;SDS011;42438;53.174;6.730;2024-03-07T05:23:17;30.73;;;16.05;;
56541;SDS011;42438;53.174;6.730;2024-03-07T05:25:48;33.30;;;16.25;;
56541;SDS011;42438;53.174;6.730;2024-03-07T05:28:19;37.35;;;18.55;;
56541;SDS011;42438;53.174;6.730;2024-03-07T05:30:50;38.20;;;17.35;;
56541;SDS011;42438;53.174;6.730;2024-03-07T05:33:21;39.88;;;18.42;;
56541;SDS011;42438;53.174;6.730;2024-03-07T05:35:52;40.65;;;18.75;;
56541;SDS011;42438;53.174;6.730;2024-03-07T05:38:32;37.53;;;17.70;;
56541;SDS011;42438;53.174;6.730;2024-03-07T05:41:03;44.90;;;20.80;;
56541;SDS011;42438;53.174;6.730;2024-03-07T05:43:34;46.55;;;20.60;;
56541;SDS011;42438;53.174;6.730;2024-03-07T05:46:05;47.38;;;21.92;;
56541;SDS011;42438;53.174;6.730;2024-03-07T05:48:37;45.67;;;21.45;;
56541;SDS011;42438;53.174;6.730;2024-03-07T05:51:07;47.55;;;21.50;;
56541;SDS011;42438;53.174;6.730;2024-03-07T05:53:40;48.50;;;22.52;;
56541;SDS011;42438;53.174;6.730;2024-03-07T05:56:10;39.20;;;19.08;;
56541;SDS011;42438;53.174;6.730;2024-03-07T05:58:41;43.28;;;21.55;;
56541;SDS011;42438;53.174;6.730;2024-03-07T06:01:12;47.20;;;22.35;;
56541;SDS011;42438;53.174;6.730;2024-03-07T06:03:42;47.55;;;20.48;;
56541;SDS011;42438;53.174;6.730;2024-03-07T06:06:13;39.00;;;20.75;;
56541;SDS011;42438;53.174;6.730;2024-03-07T06:08:44;49.13;;;23.75;;
56541;SDS011;42438;53.174;6.730;2024-03-07T06:11:14;45.00;;;19.55;;
56541;SDS011;42438;53.174;6.730;2024-03-07T06:13:50;46.58;;;21.67;;
56541;SDS011;42438;53.174;6.730;2024-03-07T06:16:21;46.28;;;22.70;;
56541;SDS011;42438;53.174;6.730;2024-03-07T06:18:51;47.00;;;22.42;;
56541;SDS011;42438;53.174;6.730;2024-03-07T06:21:22;61.20;;;23.23;;
56541;SDS011;42438;53.174;6.730;2024-03-07T06:23:53;70.80;;;25.38;;
56541;SDS011;42438;53.174;6.730;2024-03-07T06:26:30;77.35;;;23.77;;
56541;SDS011;42438;53.174;6.730;2024-03-07T06:29:16;98.72;;;25.35;;
56541;SDS011;42438;53.174;6.730;2024-03-07T06:31:48;79.68;;;22.63;;
56541;SDS011;42438;53.174;6.730;2024-03-07T06:34:20;70.85;;;24.42;;
56541;SDS011;42438;53.174;6.730;2024-03-07T06:36:51;81.75;;;24.95;;
56541;SDS011;42438;53.174;6.730;2024-03-07T06:39:21;95.22;;;28.13;;
56541;SDS011;42438;53.174;6.730;2024-03-07T06:41:52;73.13;;;24.45;;
56541;SDS011;42438;53.174;6.730;2024-03-07T06:44:22;88.57;;;26.52;;
56541;SDS011;42438;53.174;6.730;2024-03-07T06:46:53;79.65;;;25.23;;
56541;SDS011;42438;53.174;6.730;2024-03-07T06:49:24;91.50;;;25.10;;
56541;SDS011;42438;53.174;6.730;2024-03-07T06:51:54;76.18;;;27.23;;
56541;SDS011;42438;53.174;6.730;2024-03-07T06:54:26;79.10;;;26.67;;
56541;SDS011;42438;53.174;6.730;2024-03-07T06:56:57;70.22;;;24.67;;
56541;SDS011;42438;53.174;6.730;2024-03-07T06:59:27;72.25;;;24.00;;
56541;SDS011;42438;53.174;6.730;2024-03-07T07:01:58;76.15;;;25.73;;
56541;SDS011;42438;53.174;6.730;2024-03-07T07:04:29;64.95;;;24.85;;
56541;SDS011;42438;53.174;6.730;2024-03-07T07:07:11;89.40;;;26.63;;
56541;SDS011;42438;53.174;6.730;2024-03-07T07:09:43;77.32;;;25.58;;
56541;SDS011;42438;53.174;6.730;2024-03-07T07:12:13;64.65;;;26.17;;
56541;SDS011;42438;53.174;6.730;2024-03-07T07:14:44;62.95;;;26.13;;
56541;SDS011;42438;53.174;6.730;2024-03-07T07:17:15;89.93;;;26.55;;
56541;SDS011;42438;53.174;6.730;2024-03-07T07:19:46;70.82;;;24.38;;
56541;SDS011;42438;53.174;6.730;2024-03-07T07:22:16;69.43;;;24.60;;
56541;SDS011;42438;53.174;6.730;2024-03-07T07:24:48;71.85;;;24.30;;
56541;SDS011;42438;53.174;6.730;2024-03-07T07:27:19;71.20;;;24.25;;
56541;SDS011;42438;53.174;6.730;2024-03-07T07:29:50;70.85;;;23.65;;
56541;SDS011;42438;53.174;6.730;2024-03-07T07:32:20;64.15;;;23.10;;
56541;SDS011;42438;53.174;6.730;2024-03-07T07:34:51;73.40;;;23.52;;
56541;SDS011;42438;53.174;6.730;2024-03-07T07:37:21;72.00;;;24.20;;
56541;SDS011;42438;53.174;6.730;2024-03-07T07:39:53;72.93;;;24.42;;
56541;SDS011;42438;53.174;6.730;2024-03-07T07:42:23;63.38;;;22.48;;
56541;SDS011;42438;53.174;6.730;2024-03-07T07:44:54;62.10;;;23.13;;
56541;SDS011;42438;53.174;6.730;2024-03-07T07:47:24;55.47;;;21.88;;
56541;SDS011;42438;53.174;6.730;2024-03-07T07:49:55;52.47;;;21.85;;
56541;SDS011;42438;53.174;6.730;2024-03-07T07:52:26;49.20;;;19.85;;
56541;SDS011;42438;53.174;6.730;2024-03-07T07:54:56;58.80;;;20.58;;
56541;SDS011;42438;53.174;6.730;2024-03-07T07:57:27;59.72;;;21.77;;
56541;SDS011;42438;53.174;6.730;2024-03-07T07:59:59;57.78;;;22.25;;
56541;SDS011;42438;53.174;6.730;2024-03-07T08:02:29;56.42;;;21.55;;
56541;SDS011;42438;53.174;6.730;2024-03-07T08:05:00;56.47;;;20.67;;
56541;SDS011;42438;53.174;6.730;2024-03-07T08:07:31;57.60;;;21.65;;
56541;SDS011;42438;53.174;6.730;2024-03-07T08:10:01;61.25;;;22.83;;
56541;SDS011;42438;53.174;6.730;2024-03-07T08:12:32;54.38;;;20.75;;
56541;SDS011;42438;53.174;6.730;2024-03-07T08:15:04;54.95;;;22.25;;
56541;SDS011;42438;53.174;6.730;2024-03-07T08:17:35;56.50;;;20.92;;
56541;SDS011;42438;53.174;6.730;2024-03-07T08:20:05;55.65;;;21.27;;
56541;SDS011;42438;53.174;6.730;2024-03-07T08:22:42;46.25;;;19.42;;
56541;SDS011;42438;53.174;6.730;2024-03-07T08:25:13;51.70;;;20.80;;
56541;SDS011;42438;53.174;6.730;2024-03-07T08:27:45;70.53;;;22.58;;
56541;SDS011;42438;53.174;6.730;2024-03-07T08:30:17;52.50;;;21.02;;
56541;SDS011;42438;53.174;6.730;2024-03-07T08:32:49;50.38;;;21.63;;
56541;SDS011;42438;53.174;6.730;2024-03-07T08:35:24;51.80;;;20.13;;
56541;SDS011;42438;53.174;6.730;2024-03-07T08:37:55;46.60;;;20.38;;
56541;SDS011;42438;53.174;6.730;2024-03-07T08:40:28;48.60;;;19.83;;
56541;SDS011;42438;53.174;6.730;2024-03-07T08:43:02;48.67;;;19.52;;
56541;SDS011;42438;53.174;6.730;2024-03-07T08:45:33;46.13;;;20.50;;
56541;SDS011;42438;53.174;6.730;2024-03-07T08:48:04;42.40;;;19.02;;
56541;SDS011;42438;53.174;6.730;2024-03-07T08:50:35;37.50;;;16.38;;
56541;SDS011;42438;53.174;6.730;2024-03-07T08:53:07;38.83;;;16.57;;
56541;SDS011;42438;53.174;6.730;2024-03-07T08:55:38;39.40;;;18.73;;
56541;SDS011;42438;53.174;6.730;2024-03-07T08:58:09;38.03;;;17.17;;
56541;SDS011;42438;53.174;6.730;2024-03-07T09:00:40;41.60;;;18.40;;
56541;SDS011;42438;53.174;6.730;2024-03-07T09:03:11;40.28;;;17.38;;
56541;SDS011;42438;53.174;6.730;2024-03-07T09:05:42;43.83;;;18.60;;
56541;SDS011;42438;53.174;6.730;2024-03-07T09:08:12;39.38;;;16.52;;
56541;SDS011;42438;53.174;6.730;2024-03-07T09:10:43;41.50;;;18.75;;
56541;SDS011;42438;53.174;6.730;2024-03-07T09:13:14;42.40;;;20.40;;
56541;SDS011;42438;53.174;6.730;2024-03-07T09:15:44;44.45;;;18.67;;
56541;SDS011;42438;53.174;6.730;2024-03-07T09:18:15;39.78;;;17.65;;
56541;SDS011;42438;53.174;6.730;2024-03-07T09:20:46;37.90;;;18.17;;
56541;SDS011;42438;53.174;6.730;2024-03-07T09:23:18;38.08;;;17.15;;
56541;SDS011;42438;53.174;6.730;2024-03-07T09:25:49;41.75;;;18.05;;
56541;SDS011;42438;53.174;6.730;2024-03-07T09:28:20;42.33;;;19.20;;
56541;SDS011;42438;53.174;6.730;2024-03-07T09:30:50;41.40;;;17.00;;
56541;SDS011;42438;53.174;6.730;2024-03-07T09:33:21;34.80;;;16.88;;
56541;SDS011;42438;53.174;6.730;2024-03-07T09:35:52;41.60;;;18.45;;
56541;SDS011;42438;53.174;6.730;2024-03-07T09:38:23;40.17;;;17.17;;
56541;SDS011;42438;53.174;6.730;2024-03-07T09:40:53;33.40;;;16.05;;
56541;SDS011;42438;53.174;6.730;2024-03-07T09:43:25;33.85;;;16.42;;
56541;SDS011;42438;53.174;6.730;2024-03-07T09:45:58;35.88;;;16.75;;
56541;SDS011;42438;53.174;6.730;2024-03-07T09:48:30;36.38;;;16.95;;
56541;SDS011;42438;53.174;6.730;2024-03-07T09:51:00;34.20;;;16.90;;
56541;SDS011;42438;53.174;6.730;2024-03-07T09:53:35;43.40;;;20.63;;
56541;SDS011;42438;53.174;6.730;2024-03-07T09:56:07;40.03;;;17.17;;
56541;SDS011;42438;53.174;6.730;2024-03-07T10:01:12;37.22;;;16.85;;
56541;SDS011;42438;53.174;6.730;2024-03-07T10:03:43;35.60;;;17.98;;
56541;SDS011;42438;53.174;6.730;2024-03-07T10:06:16;37.60;;;16.92;;
56541;SDS011;42438;53.174;6.730;2024-03-07T10:08:47;37.80;;;17.02;;
56541;SDS011;42438;53.174;6.730;2024-03-07T10:11:18;37.50;;;18.25;;
56541;SDS011;42438;53.174;6.730;2024-03-07T10:13:53;33.92;;;16.48;;
56541;SDS011;42438;53.174;6.730;2024-03-07T10:16:25;42.80;;;17.92;;
56541;SDS011;42438;53.174;6.730;2024-03-07T10:18:55;37.60;;;17.73;;
56541;SDS011;42438;53.174;6.730;2024-03-07T10:21:26;36.17;;;17.13;;
56541;SDS011;42438;53.174;6.730;2024-03-07T10:24:03;42.13;;;17.00;;
56541;SDS011;42438;53.174;6.730;2024-03-07T10:26:37;36.55;;;16.10;;
56541;SDS011;42438;53.174;6.730;2024-03-07T10:29:08;35.45;;;16.00;;
56541;SDS011;42438;53.174;6.730;2024-03-07T10:31:39;37.33;;;16.25;;
56541;SDS011;42438;53.174;6.730;2024-03-07T10:34:11;35.97;;;17.05;;
56541;SDS011;42438;53.174;6.730;2024-03-07T10:36:42;39.92;;;17.02;;
56541;SDS011;42438;53.174;6.730;2024-03-07T10:39:13;40.10;;;16.88;;
56541;SDS011;42438;53.174;6.730;2024-03-07T10:41:51;41.90;;;17.70;;
56541;SDS011;42438;53.174;6.730;2024-03-07T10:44:27;38.33;;;16.80;;
56541;SDS011;42438;53.174;6.730;2024-03-07T10:46:59;40.60;;;17.17;;
56541;SDS011;42438;53.174;6.730;2024-03-07T10:49:33;39.13;;;16.52;;
56541;SDS011;42438;53.174;6.730;2024-03-07T10:52:10;34.92;;;17.58;;
56541;SDS011;42438;53.174;6.730;2024-03-07T10:55:08;39.95;;;18.30;;
56541;SDS011;42438;53.174;6.730;2024-03-07T10:57:51;35.22;;;16.30;;
56541;SDS011;42438;53.174;6.730;2024-03-07T11:00:26;40.70;;;16.80;;
56541;SDS011;42438;53.174;6.730;2024-03-07T11:03:11;36.88;;;16.67;;
56541;SDS011;42438;53.174;6.730;2024-03-07T11:05:41;36.88;;;16.35;;
56541;SDS011;42438;53.174;6.730;2024-03-07T11:08:13;35.90;;;16.15;;
56541;SDS011;42438;53.174;6.730;2024-03-07T11:10:45;38.70;;;15.45;;
56541;SDS011;42438;53.174;6.730;2024-03-07T11:13:17;30.97;;;15.53;;
56541;SDS011;42438;53.174;6.730;2024-03-07T11:15:48;36.63;;;16.40;;
56541;SDS011;42438;53.174;6.730;2024-03-07T11:18:21;36.38;;;15.32;;
56541;SDS011;42438;53.174;6.730;2024-03-07T11:20:52;38.72;;;16.70;;
56541;SDS011;42438;53.174;6.730;2024-03-07T11:23:30;34.47;;;14.52;;
56541;SDS011;42438;53.174;6.730;2024-03-07T11:26:09;35.65;;;16.00;;
56541;SDS011;42438;53.174;6.730;2024-03-07T11:28:41;30.88;;;14.40;;
56541;SDS011;42438;53.174;6.730;2024-03-07T11:31:25;36.03;;;15.68;;
56541;SDS011;42438;53.174;6.730;2024-03-07T11:36:49;34.85;;;14.75;;
56541;SDS011;42438;53.174;6.730;2024-03-07T11:42:19;30.02;;;14.13;;
56541;SDS011;42438;53.174;6.730;2024-03-07T11:44:49;35.67;;;15.07;;
56541;SDS011;42438;53.174;6.730;2024-03-07T11:47:21;31.23;;;14.50;;
56541;SDS011;42438;53.174;6.730;2024-03-07T11:49:54;31.35;;;14.00;;
56541;SDS011;42438;53.174;6.730;2024-03-07T11:52:27;29.98;;;14.48;;
56541;SDS011;42438;53.174;6.730;2024-03-07T11:54:58;33.75;;;13.88;;
56541;SDS011;42438;53.174;6.730;2024-03-07T11:57:33;29.35;;;13.52;;
56541;SDS011;42438;53.174;6.730;2024-03-07T12:00:04;30.67;;;13.60;;
56541;SDS011;42438;53.174;6.730;2024-03-07T12:02:41;32.25;;;12.60;;
56541;SDS011;42438;53.174;6.730;2024-03-07T12:05:13;28.52;;;12.55;;
56541;SDS011;42438;53.174;6.730;2024-03-07T12:07:45;28.07;;;13.27;;
56541;SDS011;42438;53.174;6.730;2024-03-07T12:10:17;26.17;;;12.48;;
56541;SDS011;42438;53.174;6.730;2024-03-07T12:12:54;26.02;;;13.80;;
56541;SDS011;42438;53.174;6.730;2024-03-07T12:15:26;27.23;;;13.15;;
56541;SDS011;42438;53.174;6.730;2024-03-07T12:17:58;28.80;;;13.10;;
56541;SDS011;42438;53.174;6.730;2024-03-07T12:20:31;26.25;;;12.43;;
56541;SDS011;42438;53.174;6.730;2024-03-07T12:23:03;25.00;;;11.68;;
56541;SDS011;42438;53.174;6.730;2024-03-07T12:25:38;24.33;;;12.02;;
56541;SDS011;42438;53.174;6.730;2024-03-07T12:28:12;23.60;;;11.88;;
56541;SDS011;42438;53.174;6.730;2024-03-07T12:30:50;26.27;;;11.80;;
56541;SDS011;42438;53.174;6.730;2024-03-07T12:33:24;26.73;;;12.68;;
56541;SDS011;42438;53.174;6.730;2024-03-07T12:35:57;25.63;;;11.57;;
56541;SDS011;42438;53.174;6.730;2024-03-07T12:38:39;25.45;;;11.65;;
56541;SDS011;42438;53.174;6.730;2024-03-07T12:41:11;23.10;;;12.18;;
56541;SDS011;42438;53.174;6.730;2024-03-07T12:43:44;22.40;;;11.27;;
56541;SDS011;42438;53.174;6.730;2024-03-07T12:46:18;23.63;;;11.52;;
56541;SDS011;42438;53.174;6.730;2024-03-07T12:48:49;21.55;;;11.13;;
56541;SDS011;42438;53.174;6.730;2024-03-07T12:51:20;26.10;;;11.45;;
56541;SDS011;42438;53.174;6.730;2024-03-07T12:53:52;25.70;;;12.35;;
56541;SDS011;42438;53.174;6.730;2024-03-07T12:56:23;22.95;;;12.00;;
56541;SDS011;42438;53.174;6.730;2024-03-07T12:58:54;24.45;;;11.60;;
56541;SDS011;42438;53.174;6.730;2024-03-07T13:01:27;21.45;;;11.35;;
56541;SDS011;42438;53.174;6.730;2024-03-07T13:03:57;26.13;;;11.57;;
56541;SDS011;42438;53.174;6.730;2024-03-07T13:06:29;27.15;;;12.50;;
56541;SDS011;42438;53.174;6.730;2024-03-07T13:09:00;24.73;;;11.82;;
56541;SDS011;42438;53.174;6.730;2024-03-07T13:11:30;22.15;;;11.25;;
56541;SDS011;42438;53.174;6.730;2024-03-07T13:14:02;26.10;;;13.20;;
56541;SDS011;42438;53.174;6.730;2024-03-07T13:16:33;19.65;;;12.02;;
56541;SDS011;42438;53.174;6.730;2024-03-07T13:19:04;24.85;;;11.65;;
56541;SDS011;42438;53.174;6.730;2024-03-07T13:21:35;23.48;;;11.77;;
56541;SDS011;42438;53.174;6.730;2024-03-07T13:24:06;24.52;;;11.75;;
56541;SDS011;42438;53.174;6.730;2024-03-07T13:26:38;25.27;;;11.82;;
56541;SDS011;42438;53.174;6.730;2024-03-07T13:29:09;20.65;;;11.00;;
56541;SDS011;42438;53.174;6.730;2024-03-07T13:31:40;24.80;;;11.07;;
56541;SDS011;42438;53.174;6.730;2024-03-07T13:34:12;21.85;;;11.50;;
56541;SDS011;42438;53.174;6.730;2024-03-07T13:36:43;23.25;;;11.75;;
56541;SDS011;42438;53.174;6.730;2024-03-07T13:39:15;22.58;;;11.93;;
56541;SDS011;42438;53.174;6.730;2024-03-07T13:41:45;22.27;;;11.45;;
56541;SDS011;42438;53.174;6.730;2024-03-07T13:44:18;24.97;;;11.43;;
56541;SDS011;42438;53.174;6.730;2024-03-07T13:46:49;23.65;;;11.13;;
56541;SDS011;42438;53.174;6.730;2024-03-07T13:49:20;22.80;;;12.15;;
56541;SDS011;42438;53.174;6.730;2024-03-07T13:51:53;21.67;;;10.95;;
56541;SDS011;42438;53.174;6.730;2024-03-07T13:54:30;24.95;;;12.10;;
56541;SDS011;42438;53.174;6.730;2024-03-07T14:06:03;21.55;;;11.32;;
56541;SDS011;42438;53.174;6.730;2024-03-07T14:08:57;22.25;;;10.95;;
56541;SDS011;42438;53.174;6.730;2024-03-07T14:29:41;21.52;;;10.90;;
56541;SDS011;42438;53.174;6.730;2024-03-07T14:32:21;19.65;;;10.50;;
56541;SDS011;42438;53.174;6.730;2024-03-07T14:37:37;22.20;;;11.05;;
56541;SDS011;42438;53.174;6.730;2024-03-07T14:40:16;23.60;;;11.52;;
56541;SDS011;42438;53.174;6.730;2024-03-07T14:42:47;17.98;;;10.75;;
56541;SDS011;42438;53.174;6.730;2024-03-07T14:45:19;22.55;;;11.40;;
56541;SDS011;42438;53.174;6.730;2024-03-07T14:47:53;23.40;;;10.95;;
56541;SDS011;42438;53.174;6.730;2024-03-07T14:50:24;18.50;;;10.32;;
56541;SDS011;42438;53.174;6.730;2024-03-07T14:52:59;19.95;;;10.63;;
56541;SDS011;42438;53.174;6.730;2024-03-07T14:55:30;20.38;;;10.73;;
56541;SDS011;42438;53.174;6.730;2024-03-07T14:58:02;20.85;;;11.43;;
56541;SDS011;42438;53.174;6.730;2024-03-07T15:00:32;17.38;;;9.98;;
56541;SDS011;42438;53.174;6.730;2024-03-07T15:03:04;20.73;;;11.40;;
56541;SDS011;42438;53.174;6.730;2024-03-07T15:05:36;22.15;;;11.45;;
56541;SDS011;42438;53.174;6.730;2024-03-07T15:08:07;21.17;;;9.98;;
56541;SDS011;42438;53.174;6.730;2024-03-07T15:10:42;18.98;;;9.15;;
56541;SDS011;42438;53.174;6.730;2024-03-07T15:13:16;19.10;;;10.25;;
56541;SDS011;42438;53.174;6.730;2024-03-07T15:15:47;17.92;;;10.18;;
56541;SDS011;42438;53.174;6.730;2024-03-07T15:18:17;20.95;;;10.80;;
56541;SDS011;42438;53.174;6.730;2024-03-07T15:20:48;19.45;;;10.57;;
56541;SDS011;42438;53.174;6.730;2024-03-07T15:23:19;21.38;;;10.93;;
56541;SDS011;42438;53.174;6.730;2024-03-07T15:25:50;20.05;;;11.30;;